ADDS METAR Data INFO
IDs: Format: Raw Decoded Include TAF

Data at: 1016 UTC 14 Dec 2017

KFMM 140955Z AUTO 26004KT 10SM SCT020 SCT026 OVC035 M01/M02 A3018 RMK AO2 T10101017
KFMM 140935Z AUTO 24003KT 4SM -SN SCT002 BKN008 OVC024 M01/M01 A3018 RMK AO2 T10061015
KFMM 140915Z AUTO 31004KT 1 3/4SM -SN BKN002 OVC008 00/M01 A3018 RMK AO2 T10041012
KFMM 140855Z AUTO 29003KT 1 1/4SM SN BKN002 OVC009 00/M01 A3018 RMK AO2 T10031013
KFMM 140835Z AUTO 26004KT 1 1/4SM -SN SCT002 OVC010 00/M02 A3019 RMK AO2 T10021016
KFMM 140815Z AUTO 31006KT 2SM -SN OVC010 00/M02 A3018 RMK AO2 T00001023
KFMM 140755Z AUTO 33003KT 3SM -SN OVC008 00/M03 A3018 RMK AO2 T00001027
KFMM 140735Z AUTO 33008KT 4SM -SN BKN010 OVC016 01/M03 A3017 RMK AO2 T00051035
KFMM 140715Z AUTO 33006KT 10SM -SN SCT016 BKN023 OVC047 02/M05 A3017 RMK AO2 T00171053
KFMM 140655Z AUTO 35009G15KT 10SM -SN SCT017 BKN024 OVC049 02/M06 A3017 RMK AO2 T00201057
KFMM 140635Z AUTO 35013G18KT 7SM -SN SCT017 OVC026 02/M06 A3017 RMK AO2 T00211058
KFMM 140615Z AUTO 36008G15KT 10SM SCT020 BKN028 OVC070 03/M07 A3017 RMK AO2 T00291071
KFMM 140555Z AUTO 36004KT 10SM SCT045 SCT060 BKN070 03/M10 A3016 RMK AO2 T00251100 10069 20025 401220002
KFMM 140535Z AUTO 01004KT 10SM SCT047 BKN050 BKN070 03/M10 A3015 RMK AO2 T00261105
KFMM 140515Z AUTO 03005KT 10SM BKN050 OVC070 04/M10 A3014 RMK AO2 T00361105
KFMM 140455Z AUTO 04009KT 10SM SCT080 OVC100 04/M11 A3013 RMK AO2 T00421107
KFMM 140435Z AUTO 04010KT 10SM SCT055 SCT085 OVC110 04/M11 A3012 RMK AO2 T00411111
KFMM 140415Z AUTO 03007KT 10SM SCT055 BKN080 OVC110 04/M11 A3010 RMK AO2 T00411113
KFMM 140355Z AUTO 36004KT 10SM BKN090 OVC120 05/M11 A3010 RMK AO2 T00451115
KFMM 140335Z AUTO 01005KT 10SM SCT100 OVC120 05/M12 A3009 RMK AO2 T00471116
KFMM 140315Z AUTO 36007KT 10SM OVC120 05/M11 A3009 RMK AO2 T00511115
KFMM 140255Z AUTO 35003KT 10SM OVC110 05/M11 A3008 RMK AO2 T00461115
KFMM 140235Z AUTO 31003KT 10SM OVC110 05/M11 A3008 RMK AO2 T00511114
KFMM 140215Z AUTO 01003KT 10SM OVC110 06/M11 A3007 RMK AO2 T00551112
KFMM 140155Z AUTO 36005KT 10SM OVC110 06/M11 A3006 RMK AO2 T00561112
KFMM 140135Z AUTO 00000KT 10SM OVC110 06/M11 A3005 RMK AO2 T00551115
KFMM 140115Z AUTO 00000KT 10SM OVC110 06/M11 A3004 RMK AO2 T00601115
KFMM 140055Z AUTO 36007KT 10SM OVC110 06/M11 A3004 RMK AO2 T00641115
KFMM 140035Z AUTO 01007KT 10SM OVC110 07/M12 A3004 RMK AO2 T00651116
KFMM 140015Z AUTO 01009KT 10SM OVC110 07/M12 A3003 RMK AO2 T00651117
KFMM 132355Z AUTO 01009KT 10SM OVC110 07/M12 A3003 RMK AO2 T00701118 10122 20070
KFMM 132335Z AUTO 01009KT 10SM OVC110 07/M12 A3003 RMK AO2 T00721120
KFMM 132315Z AUTO 01009KT 10SM OVC100 08/M12 A3002 RMK AO2 T00801120
KFMM 132255Z AUTO 01011G17KT 10SM OVC100 09/M12 A3002 RMK AO2 T00861120
KFMM 132235Z AUTO 01011KT 10SM OVC100 09/M12 A3002 RMK AO2 T00911121
KFMM 132215Z AUTO 01015G20KT 10SM OVC100 10/M12 A3002 RMK AO2 T00951123
KFMM 132155Z AUTO 36018G21KT 10SM BKN100 10/M12 A3002 RMK AO2 T00991124
KFMM 132135Z AUTO 36016KT 10SM SCT100 10/M12 A3001 RMK AO2 T01021125
KFMM 132115Z AUTO 36016G22KT 10SM SCT100 11/M12 A3002 RMK AO2 T01131125
KFMM 132055Z AUTO 36017G23KT 10SM CLR 12/M13 A3002 RMK AO2 T01151126
KFMM 132035Z AUTO 01015G22KT 10SM CLR 12/M12 A3003 RMK AO2 T01191125
KFMM 132015Z AUTO 35015G21KT 10SM CLR 12/M13 A3004 RMK AO2 T01211127
KFMM 131955Z AUTO 35015G24KT 10SM CLR 12/M13 A3006 RMK AO2 T01171126
KFMM 131935Z AUTO 35014KT 10SM CLR 12/M13 A3007 RMK AO2 T01181127
KFMM 131915Z AUTO 35016G27KT 10SM CLR 12/M13 A3008 RMK AO2 T01181129
KFMM 131855Z AUTO 35020G26KT 10SM CLR 11/M12 A3009 RMK AO2 T01131125
KFMM 131835Z AUTO 35020G25KT 10SM CLR 11/M12 A3011 RMK AO2 T01121125
KFMM 131815Z AUTO 34017G26KT 10SM CLR 11/M12 A3012 RMK AO2 T01111125
KFMM 131755Z AUTO 34020G26KT 10SM CLR 11/M12 A3013 RMK AO2 T01051125 10105 20053
KFMM 131735Z AUTO 34021G28KT 10SM CLR 10/M12 A3015 RMK AO2 T00981125
KFMM 131715Z AUTO 35022G27KT 10SM CLR 10/M13 A3015 RMK AO2 T00951126
KFMM 131655Z AUTO 34024G27KT 10SM CLR 09/M13 A3016 RMK AO2 T00941127
KFMM 131635Z AUTO 34021G25KT 10SM CLR 09/M13 A3017 RMK AO2 T00891128
KFMM 131615Z AUTO 34021G27KT 10SM CLR 09/M13 A3016 RMK AO2 T00851133
KFMM 131555Z AUTO 34019G26KT 10SM CLR 08/M14 A3016 RMK AO2 T00761136
KFMM 131535Z AUTO 33015G20KT 10SM CLR 07/M14 A3016 RMK AO2 T00661137
KFMM 131515Z AUTO 35014KT 10SM CLR 06/M14 A3016 RMK AO2 T00581136
KFMM 131455Z AUTO 34017KT 10SM CLR 05/M13 A3015 RMK AO2 T00541135
KFMM 131435Z AUTO 35017G25KT 10SM CLR 06/M14 A3015 RMK AO2 T00571136
KFMM 131415Z AUTO 35018G25KT 10SM CLR 07/M13 A3015 RMK AO2 T00701135
KFMM 131355Z AUTO 34017G24KT 10SM BKN120 07/M13 A3014 RMK AO2 T00721132
KFMM 131335Z AUTO 34015KT 10SM OVC120 07/M13 A3014 RMK AO2 T00741134
KFMM 131315Z AUTO 34014G24KT 10SM OVC120 08/M13 A3013 RMK AO2 T00761135
KFMM 131255Z AUTO 35019G23KT 10SM BKN120 08/M14 A3012 RMK AO2 T00781136
KFMM 131235Z AUTO 35019G24KT 10SM OVC120 08/M14 A3011 RMK AO2 T00801140
KFMM 131215Z AUTO 35018G24KT 10SM BKN120 08/M14 A3011 RMK AO2 T00771143
KFMM 131155Z AUTO 35015KT 10SM SCT120 08/M15 A3011 RMK AO2 7//// T00751148 10080 20002
KFMM 131135Z AUTO 35015KT 10SM CLR 07/M15 A3009 RMK AO2 T00711146
KFMM 131115Z AUTO 35015G21KT 10SM CLR 06/M14 A3009 RMK AO2 T00621144
KFMM 131055Z AUTO 34015KT 10SM CLR 06/M15 A3009 RMK AO2 T00581150
KFMM 131035Z AUTO 35009KT 10SM CLR 05/M16 A3008 RMK AO2 T00541158
KFMM 131015Z AUTO 35015G19KT 10SM CLR 08/M16 A3007 RMK AO2 T00751159
KFMM 130955Z AUTO 35015KT 10SM CLR 08/M16 A3006 RMK AO2 T00761160
KFMM 130935Z AUTO 35014KT 10SM CLR 07/M16 A3004 RMK AO2 T00661158
KFMM 130915Z AUTO 35013KT 10SM CLR 06/M16 A3004 RMK AO2 T00601156
KFMM 130855Z AUTO 35012KT 10SM CLR 05/M15 A3004 RMK AO2 T00531155
KFMM 130835Z AUTO 34009KT 10SM CLR 06/M15 A3004 RMK AO2 T00561155
KFMM 130815Z AUTO 33008KT 10SM CLR 07/M16 A3004 RMK AO2 T00691158
KFMM 130755Z AUTO 31009KT 10SM CLR 07/M15 A3003 RMK AO2 T00671151
KFMM 130735Z AUTO 30013KT 10SM CLR 05/M15 A3003 RMK AO2 T00521146
KFMM 130715Z AUTO 29011KT 10SM CLR 05/M14 A3002 RMK AO2 T00481142
KFMM 130655Z AUTO 29012KT 10SM CLR 05/M14 A3003 RMK AO2 T00491136
KFMM 130635Z AUTO 30011KT 10SM CLR 04/M13 A3003 RMK AO2 T00371135
KFMM 130615Z AUTO 29011KT 10SM CLR 00/M12 A3004 RMK AO2 T00041122
KFMM 130555Z AUTO 28008KT 10SM CLR 00/M11 A3004 RMK AO2 T10011115 10100 21002
KFMM 130535Z AUTO 27009KT 10SM CLR 01/M11 A3004 RMK AO2 T00141106
KFMM 130515Z AUTO 28010KT 10SM CLR 01/M09 A3004 RMK AO2 T00101095
KFMM 130455Z AUTO 27008KT 10SM CLR 00/M10 A3004 RMK AO2 T10021099
KFMM 130435Z AUTO 27008KT 10SM CLR 00/M10 A3005 RMK AO2 T00011100
KFMM 130415Z AUTO 27008KT 10SM CLR 01/M10 A3006 RMK AO2 T00091101
KFMM 130355Z AUTO 27011KT 10SM CLR 01/M10 A3006 RMK AO2 T00071101
KFMM 130335Z AUTO 25005KT 10SM CLR 03/M10 A3007 RMK AO2 T00251103
KFMM 130315Z AUTO 28008KT 10SM CLR 03/M10 A3008 RMK AO2 T00341103
KFMM 130255Z AUTO 27007KT 10SM CLR 03/M11 A3008 RMK AO2 T00311110
KFMM 130235Z AUTO 29007KT 10SM CLR 05/M11 A3008 RMK AO2 T00521111
KFMM 130215Z AUTO 29009KT 10SM CLR 08/M11 A3009 RMK AO2 T00791106
KFMM 130155Z AUTO 29010KT 10SM CLR 09/M10 A3009 RMK AO2 T00871105
KFMM 130135Z AUTO 29009KT 10SM CLR 09/M10 A3009 RMK AO2 T00871105
KFMM 130115Z AUTO 29009KT 10SM CLR 09/M10 A3011 RMK AO2 T00901105
KFMM 130055Z AUTO 29007KT 10SM CLR 09/M11 A3011 RMK AO2 T00851112
KFMM 130035Z AUTO 26006KT 10SM CLR 10/M10 A3011 RMK AO2 T00971105
KFMM 130015Z AUTO 28007KT 10SM CLR 09/M11 A3011 RMK AO2 T00901112
KFMM 122355Z AUTO 26007KT 10SM CLR 10/M11 A3011 RMK AO2 6//// T00961113
KFMM 122335Z AUTO 28006KT 10SM CLR 11/M11 A3012 RMK AO2 T01101112
KFMM 122315Z AUTO 27005KT 10SM CLR 13/M11 A3012 RMK AO2 T01341114
KFMM 122255Z AUTO 27004KT 10SM CLR 15/M11 A3013 RMK AO2 T01531114
KFMM 122235Z AUTO 26005KT 10SM CLR 17/M11 A3013 RMK AO2 T01701111